Time;durP1;ratioP1;P1;durP2;ratioP2;P2;SDS_P1;SDS_P2;PMS_P1;PMS_P2;Temp;Humidity;BMP_temperature;BMP_pressure;BME280_temperature;BME280_humidity;BME280_pressure;Samples;Min_cycle;Max_cycle;Signal;HPM_P1;HPM_P2
2023/05/07 00:00:09;;;;;;;4.95;4.55;;;15.40;76.10;;;;;;5023174;28;20048;-65
2023/05/07 00:02:35;;;;;;;5.68;4.40;;;15.40;76.30;;;;;;5024847;28;20033;-66
2023/05/07 00:05:02;;;;;;;5.25;4.75;;;15.40;76.30;;;;;;5027153;28;20038;-65
2023/05/07 00:07:28;;;;;;;5.57;4.55;;;15.40;76.30;;;;;;5025667;28;20063;-65
2023/05/07 00:09:53;;;;;;;4.97;4.57;;;15.30;76.30;;;;;;5025547;28;21579;-65
2023/05/07 00:12:19;;;;;;;5.32;4.47;;;15.30;76.40;;;;;;5030106;28;20057;-65
2023/05/07 00:14:45;;;;;;;4.45;4.05;;;15.30;76.50;;;;;;5026181;28;20631;-65
2023/05/07 00:17:10;;;;;;;5.10;4.28;;;15.30;76.60;;;;;;5026753;28;20416;-65
2023/05/07 00:19:36;;;;;;;4.63;3.92;;;15.30;76.70;;;;;;5025540;28;20040;-67
2023/05/07 00:22:02;;;;;;;4.32;3.92;;;15.30;76.70;;;;;;5029678;28;20025;-65
2023/05/07 00:24:27;;;;;;;4.80;4.22;;;15.20;76.70;;;;;;5028578;28;20136;-64
2023/05/07 00:26:53;;;;;;;4.05;3.65;;;15.20;76.80;;;;;;5034341;28;20045;-65
2023/05/07 00:29:18;;;;;;;5.80;3.83;;;15.20;76.90;;;;;;5026868;28;20045;-65
2023/05/07 00:31:44;;;;;;;4.93;3.80;;;15.20;76.80;;;;;;5028278;28;20504;-64
2023/05/07 00:34:09;;;;;;;4.75;3.50;;;15.20;76.90;;;;;;5025939;28;20467;-65
2023/05/07 00:36:35;;;;;;;4.85;4.35;;;15.20;77.00;;;;;;5028734;28;20042;-65
2023/05/07 00:39:03;;;;;;;5.38;4.78;;;15.20;77.20;;;;;;5034475;28;20042;-68
2023/05/07 00:41:30;;;;;;;6.43;5.78;;;15.10;77.10;;;;;;5032045;28;20037;-66
2023/05/07 00:43:56;;;;;;;6.68;5.65;;;15.10;78.00;;;;;;5035484;28;20045;-64
2023/05/07 00:46:22;;;;;;;6.00;5.45;;;15.10;77.30;;;;;;5031286;28;20547;-65
2023/05/07 00:48:49;;;;;;;5.90;5.28;;;15.10;77.40;;;;;;5031996;28;20052;-64
2023/05/07 00:51:15;;;;;;;7.68;5.45;;;15.00;77.40;;;;;;5031746;28;20029;-65
2023/05/07 00:53:41;;;;;;;7.13;5.57;;;15.00;77.60;;;;;;5026461;28;20045;-65
2023/05/07 00:56:07;;;;;;;6.05;5.45;;;15.00;77.70;;;;;;5026383;28;20045;-65
2023/05/07 00:58:33;;;;;;;5.57;5.07;;;15.10;77.70;;;;;;5032773;28;20111;-64
2023/05/07 01:00:59;;;;;;;6.03;5.43;;;15.10;77.70;;;;;;5024137;28;20026;-65
2023/05/07 01:03:25;;;;;;;7.35;5.47;;;15.10;77.80;;;;;;5021739;28;20045;-65
2023/05/07 01:05:53;;;;;;;6.57;5.03;;;15.10;77.80;;;;;;5027565;28;20034;-65
2023/05/07 01:08:19;;;;;;;5.57;5.07;;;15.10;78.00;;;;;;5023015;28;20033;-65
2023/05/07 01:10:46;;;;;;;5.60;5.10;;;15.10;77.90;;;;;;5019948;28;20082;-66
2023/05/07 01:13:13;;;;;;;5.95;5.25;;;15.00;77.90;;;;;;5029000;28;20034;-65
2023/05/07 01:15:40;;;;;;;5.97;5.22;;;15.00;77.90;;;;;;5023695;28;20033;-64
2023/05/07 01:18:06;;;;;;;6.47;4.90;;;15.00;78.00;;;;;;5022748;28;20116;-65
2023/05/07 01:20:32;;;;;;;6.65;4.78;;;14.90;78.00;;;;;;5024990;28;20029;-64
2023/05/07 01:22:58;;;;;;;5.63;5.13;;;14.90;78.10;;;;;;5026828;28;20450;-65
2023/05/07 01:25:24;;;;;;;5.70;4.97;;;14.90;78.20;;;;;;5030099;28;20065;-64
2023/05/07 01:27:50;;;;;;;5.10;4.70;;;14.80;78.30;;;;;;5029508;28;20148;-64
2023/05/07 01:30:18;;;;;;;5.07;4.65;;;14.80;78.30;;;;;;5024279;28;20048;-65
2023/05/07 01:32:51;;;;;;;5.47;4.63;;;14.70;78.40;;;;;;5026962;28;20555;-65
2023/05/07 01:35:22;;;;;;;5.78;4.60;;;14.70;78.70;;;;;;5026816;28;20132;-65
2023/05/07 01:37:49;;;;;;;4.82;4.32;;;14.70;78.70;;;;;;5027113;28;20393;-65
2023/05/07 01:40:15;;;;;;;4.20;3.80;;;14.70;78.60;;;;;;5028967;28;20041;-64
2023/05/07 01:42:43;;;;;;;4.57;3.67;;;14.70;79.60;;;;;;5025553;28;20310;-65
2023/05/07 01:45:09;;;;;;;4.55;3.72;;;14.60;78.60;;;;;;5030604;28;20049;-65
2023/05/07 01:47:36;;;;;;;3.65;3.30;;;14.60;78.60;;;;;;5028824;28;20500;-64
2023/05/07 01:50:02;;;;;;;3.85;3.55;;;14.60;78.60;;;;;;5031642;28;20028;-65
2023/05/07 01:52:28;;;;;;;5.00;3.78;;;14.60;78.60;;;;;;5022403;28;20122;-68
2023/05/07 01:54:54;;;;;;;3.63;3.28;;;14.60;78.70;;;;;;5030357;28;20041;-65
2023/05/07 01:57:20;;;;;;;3.85;3.28;;;14.60;78.70;;;;;;5029766;28;20057;-65
2023/05/07 01:59:46;;;;;;;5.10;3.92;;;14.60;78.70;;;;;;5031928;28;20127;-66
2023/05/07 02:02:11;;;;;;;3.67;3.38;;;14.60;78.60;;;;;;5027315;28;20063;-64
2023/05/07 02:04:37;;;;;;;3.83;3.53;;;14.60;78.60;;;;;;5024191;28;20227;-65
2023/05/07 02:07:02;;;;;;;4.40;3.78;;;14.60;78.70;;;;;;5020872;28;20320;-65
2023/05/07 02:09:28;;;;;;;5.57;3.78;;;14.50;78.70;;;;;;5027906;28;20112;-65
2023/05/07 02:11:53;;;;;;;4.45;3.63;;;14.50;78.70;;;;;;5023405;28;20520;-65
2023/05/07 02:14:20;;;;;;;4.13;3.80;;;14.50;78.80;;;;;;5022423;28;20454;-65
2023/05/07 02:16:46;;;;;;;5.05;3.83;;;14.50;78.90;;;;;;5023010;28;20516;-65
2023/05/07 02:19:11;;;;;;;5.50;4.35;;;14.50;79.10;;;;;;5023223;28;20037;-65
2023/05/07 02:21:37;;;;;;;4.43;4.13;;;14.40;79.00;;;;;;5024031;28;20029;-66
2023/05/07 02:24:02;;;;;;;4.75;4.30;;;14.40;79.10;;;;;;5027912;28;20670;-65
2023/05/07 02:26:28;;;;;;;4.70;4.20;;;14.30;79.10;;;;;;5028324;28;20090;-65
2023/05/07 02:28:53;;;;;;;5.18;4.28;;;14.30;79.20;;;;;;5028375;28;20029;-64
2023/05/07 02:31:19;;;;;;;4.60;4.20;;;14.30;79.40;;;;;;5022689;28;20033;-68
2023/05/07 02:33:45;;;;;;;4.57;4.10;;;14.20;79.50;;;;;;5031391;28;20033;-64
2023/05/07 02:36:11;;;;;;;4.65;4.07;;;14.20;79.60;;;;;;5027917;28;20544;-65
2023/05/07 02:38:38;;;;;;;4.65;4.25;;;14.10;79.60;;;;;;5029738;28;20041;-65
2023/05/07 02:41:03;;;;;;;5.38;4.93;;;14.10;79.70;;;;;;5031700;28;20035;-65
2023/05/07 02:43:29;;;;;;;5.60;4.95;;;14.10;79.80;;;;;;5031753;28;20044;-65
2023/05/07 02:46:02;;;;;;;4.85;4.45;;;14.10;79.80;;;;;;5030448;28;20037;-64
2023/05/07 02:48:28;;;;;;;4.50;4.18;;;14.10;80.00;;;;;;5036757;28;20034;-64
2023/05/07 02:50:54;;;;;;;4.25;3.92;;;14.00;79.60;;;;;;5035738;28;20052;-65
2023/05/07 02:53:19;;;;;;;4.53;4.13;;;14.00;79.70;;;;;;5029263;28;20060;-65
2023/05/07 02:55:45;;;;;;;5.75;4.25;;;14.00;79.80;;;;;;5032248;28;20523;-65
2023/05/07 02:58:10;;;;;;;4.63;4.22;;;14.00;79.90;;;;;;5032334;28;20025;-65
2023/05/07 03:00:36;;;;;;;4.80;4.40;;;13.90;79.80;;;;;;5026218;28;20117;-65
2023/05/07 03:03:02;;;;;;;4.68;4.28;;;13.90;79.80;;;;;;5031101;28;20040;-65
2023/05/07 03:05:27;;;;;;;4.95;4.45;;;13.80;79.90;;;;;;5030829;28;20033;-65
2023/05/07 03:07:53;;;;;;;4.53;4.15;;;13.80;80.10;;;;;;5033060;28;20041;-65
2023/05/07 03:10:18;;;;;;;4.70;4.20;;;13.70;80.20;;;;;;5030454;28;20087;-65
2023/05/07 03:12:44;;;;;;;4.55;4.15;;;13.70;80.30;;;;;;5028380;28;20086;-65
2023/05/07 03:15:12;;;;;;;5.45;4.65;;;13.70;80.30;;;;;;5026636;28;20049;-69
2023/05/07 03:17:38;;;;;;;5.18;4.40;;;13.70;80.30;;;;;;5034807;28;20039;-65
2023/05/07 03:20:04;;;;;;;6.47;4.22;;;13.60;80.40;;;;;;5033134;28;20037;-64
2023/05/07 03:22:30;;;;;;;5.38;4.70;;;13.60;80.50;;;;;;5025619;28;20411;-65
2023/05/07 03:24:55;;;;;;;5.20;4.70;;;13.60;80.60;;;;;;5027235;28;20041;-65
2023/05/07 03:27:21;;;;;;;6.93;4.80;;;13.50;80.60;;;;;;5029075;28;20037;-65
2023/05/07 03:29:46;;;;;;;5.45;4.95;;;13.50;80.60;;;;;;5022833;28;20095;-63
2023/05/07 03:32:12;;;;;;;6.10;4.47;;;13.50;80.80;;;;;;5029314;28;20349;-65
2023/05/07 03:34:38;;;;;;;5.53;5.03;;;13.40;80.60;;;;;;5036836;28;20045;-65
2023/05/07 03:37:03;;;;;;;4.95;4.50;;;13.40;80.60;;;;;;5031422;28;20029;-65
2023/05/07 03:39:29;;;;;;;6.63;5.00;;;13.40;80.60;;;;;;5032043;28;20527;-64
2023/05/07 03:41:55;;;;;;;5.07;4.60;;;13.30;80.60;;;;;;5029385;28;20045;-65
2023/05/07 03:44:20;;;;;;;5.82;4.60;;;13.30;80.80;;;;;;5032967;28;20184;-65
2023/05/07 03:46:46;;;;;;;7.28;4.80;;;13.20;80.80;;;;;;5028219;28;20030;-65
2023/05/07 03:49:12;;;;;;;5.28;4.65;;;13.20;80.80;;;;;;5025490;28;20065;-65
2023/05/07 03:51:37;;;;;;;4.75;4.18;;;13.20;81.00;;;;;;5034082;28;20036;-64
2023/05/07 03:54:03;;;;;;;5.60;5.20;;;13.20;81.00;;;;;;5033325;28;20470;-65
2023/05/07 03:56:28;;;;;;;5.55;5.05;;;13.20;80.90;;;;;;5028352;28;20458;-65
2023/05/07 03:58:54;;;;;;;4.93;4.53;;;13.20;80.90;;;;;;5031416;28;20091;-64
2023/05/07 04:01:19;;;;;;;5.18;4.78;;;13.10;80.90;;;;;;5025523;28;20036;-65
2023/05/07 04:03:45;;;;;;;5.00;4.60;;;13.10;81.00;;;;;;5025420;28;20457;-64
2023/05/07 04:06:11;;;;;;;5.40;4.90;;;13.10;81.20;;;;;;5027404;28;20029;-64
2023/05/07 04:08:37;;;;;;;5.13;4.72;;;13.00;81.20;;;;;;5024658;28;20643;-64
2023/05/07 04:11:03;;;;;;;5.47;4.97;;;13.00;81.20;;;;;;5024163;28;20026;-64
2023/05/07 04:13:30;;;;;;;6.18;4.88;;;13.00;81.50;;;;;;5031481;28;20045;-65
2023/05/07 04:15:56;;;;;;;6.13;5.53;;;12.90;81.70;;;;;;5024696;28;20055;-65
2023/05/07 04:18:22;;;;;;;6.45;5.55;;;12.90;81.70;;;;;;5024010;28;21355;-64
2023/05/07 04:20:49;;;;;;;5.88;5.38;;;12.90;81.90;;;;;;5024909;28;20052;-64
2023/05/07 04:23:14;;;;;;;7.32;5.10;;;12.90;81.90;;;;;;5026258;28;21664;-64
2023/05/07 04:25:40;;;;;;;5.55;5.05;;;12.90;82.00;;;;;;5028663;28;20041;-64
2023/05/07 04:28:06;;;;;;;6.30;5.00;;;12.80;82.20;;;;;;5030946;28;20452;-65
2023/05/07 04:30:31;;;;;;;5.38;4.90;;;12.90;82.30;;;;;;5027677;28;20729;-64
2023/05/07 04:32:57;;;;;;;6.28;4.68;;;12.90;82.40;;;;;;5028861;28;20138;-64
2023/05/07 04:35:22;;;;;;;5.28;4.78;;;12.80;82.40;;;;;;5032230;28;20036;-64
2023/05/07 04:37:48;;;;;;;5.97;4.85;;;12.90;82.40;;;;;;5029670;28;20040;-64
2023/05/07 04:40:14;;;;;;;6.45;5.10;;;12.90;82.20;;;;;;5028142;28;20233;-64
2023/05/07 04:42:40;;;;;;;4.72;4.32;;;12.90;82.20;;;;;;5029863;28;20037;-64
2023/05/07 04:45:06;;;;;;;7.35;4.85;;;12.90;82.10;;;;;;5026892;28;20053;-64
2023/05/07 04:47:31;;;;;;;5.18;4.78;;;12.90;82.00;;;;;;5034272;28;20103;-64
2023/05/07 04:49:58;;;;;;;6.13;4.68;;;13.00;82.10;;;;;;5035157;28;20042;-65
2023/05/07 04:52:23;;;;;;;5.50;5.00;;;13.00;82.10;;;;;;5031307;28;20060;-64
2023/05/07 04:54:49;;;;;;;8.35;5.28;;;13.00;82.20;;;;;;5030837;28;20456;-64
2023/05/07 04:57:16;;;;;;;6.72;5.40;;;13.00;82.40;;;;;;5029169;28;20518;-64
2023/05/07 04:59:42;;;;;;;6.05;5.47;;;12.90;82.60;;;;;;5029982;28;20041;-64
2023/05/07 05:02:07;;;;;;;5.70;5.05;;;12.90;82.80;;;;;;5028347;28;20034;-65
2023/05/07 05:04:33;;;;;;;6.28;5.53;;;12.90;82.90;;;;;;5029583;28;20120;-65
2023/05/07 05:06:59;;;;;;;6.65;5.60;;;13.00;83.20;;;;;;5028230;28;20052;-65
2023/05/07 05:09:24;;;;;;;6.57;6.03;;;13.00;83.40;;;;;;5028367;28;20041;-64
2023/05/07 05:11:50;;;;;;;7.22;6.25;;;13.00;83.70;;;;;;5020402;28;20539;-64
2023/05/07 05:14:15;;;;;;;6.75;6.15;;;13.00;84.00;;;;;;5029997;28;20041;-64
2023/05/07 05:16:41;;;;;;;6.80;6.20;;;13.10;84.20;;;;;;5026071;28;20471;-64
2023/05/07 05:19:07;;;;;;;6.55;5.88;;;13.10;84.50;;;;;;5028974;28;20096;-65
2023/05/07 05:21:32;;;;;;;7.00;6.40;;;13.20;84.60;;;;;;5023856;28;20207;-65
2023/05/07 05:23:58;;;;;;;7.43;6.60;;;13.20;84.80;;;;;;5031818;28;20041;-64
2023/05/07 05:26:24;;;;;;;6.97;6.28;;;13.30;85.00;;;;;;5030482;28;20033;-64
2023/05/07 05:28:49;;;;;;;7.00;6.40;;;13.40;85.10;;;;;;5030935;28;20075;-65
2023/05/07 05:31:16;;;;;;;6.90;6.20;;;13.50;85.30;;;;;;5025774;28;20029;-64
2023/05/07 05:33:42;;;;;;;9.50;6.32;;;13.50;85.30;;;;;;5021806;28;20037;-65
2023/05/07 05:36:09;;;;;;;7.30;6.60;;;13.60;85.50;;;;;;5024067;28;20573;-64
2023/05/07 05:38:35;;;;;;;8.23;6.60;;;13.70;85.70;;;;;;5023943;28;20033;-65
2023/05/07 05:41:00;;;;;;;7.07;6.45;;;13.80;85.80;;;;;;5024192;28;20381;-65
2023/05/07 05:43:26;;;;;;;6.63;5.93;;;13.90;85.90;;;;;;5024154;28;20033;-64
2023/05/07 05:45:51;;;;;;;6.57;5.93;;;13.90;85.80;;;;;;5030203;28;20044;-65
2023/05/07 05:48:17;;;;;;;6.93;6.22;;;14.00;85.50;;;;;;5031427;28;20041;-64
2023/05/07 05:50:43;;;;;;;6.40;5.80;;;14.10;85.40;;;;;;5034243;28;20038;-64
2023/05/07 05:53:08;;;;;;;7.00;6.03;;;14.20;85.30;;;;;;5029377;28;20171;-64
2023/05/07 05:55:34;;;;;;;6.75;6.05;;;14.30;85.00;;;;;;5030946;28;20032;-64
2023/05/07 05:58:02;;;;;;;6.28;5.78;;;14.40;84.80;;;;;;5029833;28;20464;-66
2023/05/07 06:00:29;;;;;;;6.90;5.85;;;14.50;85.10;;;;;;5025203;28;20680;-64
2023/05/07 06:02:54;;;;;;;6.05;5.45;;;14.50;84.80;;;;;;5026279;28;20094;-65
2023/05/07 06:05:20;;;;;;;5.88;5.32;;;14.60;84.70;;;;;;5024453;28;20041;-64
2023/05/07 06:07:46;;;;;;;7.75;5.90;;;14.80;84.60;;;;;;5022143;28;20036;-64
2023/05/07 06:10:12;;;;;;;8.07;6.45;;;14.80;84.60;;;;;;5024233;28;20075;-64
2023/05/07 06:12:37;;;;;;;9.38;5.97;;;14.90;84.70;;;;;;5026488;28;20044;-65
2023/05/07 06:15:03;;;;;;;7.25;6.25;;;15.00;84.70;;;;;;5023388;28;20117;-65
2023/05/07 06:17:29;;;;;;;6.60;5.95;;;15.10;84.60;;;;;;5027277;28;20040;-65
2023/05/07 06:19:55;;;;;;;6.25;5.65;;;15.20;84.30;;;;;;5023533;28;20037;-65
2023/05/07 06:22:20;;;;;;;7.25;5.30;;;15.20;84.10;;;;;;5022304;28;20044;-64
2023/05/07 06:24:46;;;;;;;5.97;5.38;;;15.30;84.00;;;;;;5030061;28;20041;-64
2023/05/07 06:27:11;;;;;;;5.88;5.38;;;15.40;83.90;;;;;;5033656;28;20512;-67
2023/05/07 06:29:37;;;;;;;6.35;5.75;;;15.50;83.80;;;;;;5028553;28;20037;-65
2023/05/07 06:32:13;;;;;;;6.93;5.43;;;15.60;83.80;;;;;;5025458;28;20112;-65
2023/05/07 06:34:39;;;;;;;6.38;5.63;;;15.60;84.30;;;;;;5027168;28;20432;-65
2023/05/07 06:37:06;;;;;;;5.80;5.30;;;15.70;83.80;;;;;;5027394;28;20498;-65
2023/05/07 06:39:32;;;;;;;6.00;5.50;;;15.80;83.70;;;;;;5029766;28;20420;-65
2023/05/07 06:41:58;;;;;;;6.70;6.03;;;15.90;83.60;;;;;;5032678;28;20518;-65
2023/05/07 06:44:24;;;;;;;6.43;5.70;;;16.00;83.50;;;;;;5033162;28;20033;-65
2023/05/07 06:46:49;;;;;;;5.93;5.43;;;16.10;83.30;;;;;;5029795;28;20033;-65
2023/05/07 06:49:15;;;;;;;10.23;5.55;;;16.10;83.10;;;;;;5032155;28;20508;-64
2023/05/07 06:51:41;;;;;;;5.80;5.30;;;16.20;83.20;;;;;;5025008;28;20893;-65
2023/05/07 06:54:07;;;;;;;6.45;5.57;;;16.30;83.00;;;;;;5021543;28;20091;-65
2023/05/07 06:56:34;;;;;;;8.18;5.97;;;16.40;83.00;;;;;;5006712;28;20033;-64
2023/05/07 06:59:03;;;;;;;6.28;5.68;;;16.50;82.80;;;;;;5016221;28;20516;-64
2023/05/07 07:01:28;;;;;;;6.50;5.80;;;16.60;82.70;;;;;;5005072;28;20340;-65
2023/05/07 07:03:54;;;;;;;6.78;5.80;;;16.70;82.60;;;;;;5024643;28;20041;-64
2023/05/07 07:06:20;;;;;;;7.45;6.15;;;16.70;82.40;;;;;;5021392;28;20041;-66
2023/05/07 07:08:45;;;;;;;6.65;6.13;;;16.90;82.60;;;;;;5029837;28;20025;-66
2023/05/07 07:11:11;;;;;;;7.25;6.30;;;16.90;82.50;;;;;;5003344;28;20168;-65
2023/05/07 07:13:37;;;;;;;7.30;6.03;;;17.00;82.60;;;;;;5011532;28;20073;-65
2023/05/07 07:16:03;;;;;;;6.78;6.07;;;17.00;82.70;;;;;;5018853;28;20576;-65
2023/05/07 07:18:28;;;;;;;6.22;5.63;;;17.10;82.50;;;;;;5015140;28;20052;-64
2023/05/07 07:20:54;;;;;;;7.00;6.13;;;17.20;82.40;;;;;;5025456;28;20112;-64
2023/05/07 07:23:20;;;;;;;8.10;6.15;;;17.30;82.20;;;;;;5022349;28;20642;-64
2023/05/07 07:25:45;;;;;;;6.68;5.55;;;17.40;82.00;;;;;;5025381;28;20041;-64
2023/05/07 07:28:11;;;;;;;6.90;6.18;;;17.40;82.00;;;;;;5026217;28;20038;-65
2023/05/07 07:30:37;;;;;;;6.50;5.85;;;17.50;81.80;;;;;;5021243;28;20039;-65
2023/05/07 07:33:03;;;;;;;6.82;6.13;;;17.60;81.50;;;;;;5028350;28;20128;-65
2023/05/07 07:35:35;;;;;;;6.85;5.82;;;17.70;81.30;;;;;;5023029;28;20116;-65
2023/05/07 07:38:01;;;;;;;6.00;5.50;;;17.80;81.50;;;;;;5019677;28;20033;-65
2023/05/07 07:40:27;;;;;;;6.32;5.72;;;17.80;81.20;;;;;;5027774;28;20034;-65
2023/05/07 07:42:53;;;;;;;6.47;5.90;;;17.90;81.00;;;;;;5033492;28;20040;-65
2023/05/07 07:45:19;;;;;;;6.60;6.00;;;18.00;81.00;;;;;;5024884;28;20044;-65
2023/05/07 07:47:44;;;;;;;6.78;6.18;;;18.10;80.80;;;;;;5028401;28;20065;-66
2023/05/07 07:50:10;;;;;;;5.85;5.25;;;18.20;80.40;;;;;;5033763;28;20041;-64
2023/05/07 07:52:36;;;;;;;6.03;5.43;;;18.30;80.30;;;;;;5027248;28;20386;-69
2023/05/07 07:55:02;;;;;;;6.05;5.50;;;18.40;80.20;;;;;;5029848;28;20041;-65
2023/05/07 07:57:27;;;;;;;5.85;5.35;;;18.50;80.00;;;;;;5023973;28;20045;-66
2023/05/07 07:59:53;;;;;;;6.57;5.88;;;18.60;79.80;;;;;;5029108;28;20060;-65
2023/05/07 08:02:18;;;;;;;5.60;5.10;;;18.70;79.30;;;;;;5028841;28;20554;-66
2023/05/07 08:04:44;;;;;;;5.93;5.45;;;18.80;78.90;;;;;;5028989;28;20041;-65
2023/05/07 08:07:10;;;;;;;6.13;5.60;;;18.90;78.40;;;;;;5023969;28;20089;-65
2023/05/07 08:09:37;;;;;;;6.05;5.47;;;19.00;78.30;;;;;;5021343;28;21407;-66
2023/05/07 08:12:04;;;;;;;5.75;5.10;;;19.10;78.00;;;;;;5005915;28;20034;-67
2023/05/07 08:14:29;;;;;;;5.93;5.25;;;19.10;77.90;;;;;;5012493;28;20450;-66
2023/05/07 08:16:55;;;;;;;5.82;5.28;;;19.20;77.70;;;;;;5021366;28;20124;-67
2023/05/07 08:19:21;;;;;;;8.32;6.03;;;19.20;77.40;;;;;;5027456;28;20576;-66
2023/05/07 08:21:47;;;;;;;7.03;5.68;;;19.30;77.50;;;;;;5006863;28;21892;-65
2023/05/07 08:24:14;;;;;;;6.38;5.85;;;19.30;77.20;;;;;;5024928;28;20635;-65
2023/05/07 08:26:40;;;;;;;6.00;5.40;;;19.40;76.60;;;;;;5028492;28;20030;-64
2023/05/07 08:29:06;;;;;;;6.80;6.10;;;19.40;76.60;;;;;;5032616;28;20029;-64
2023/05/07 08:31:32;;;;;;;6.35;5.80;;;19.40;76.60;;;;;;5030621;28;20044;-63
2023/05/07 08:33:58;;;;;;;6.15;5.55;;;19.40;76.60;;;;;;5027039;28;20041;-64
2023/05/07 08:36:24;;;;;;;6.57;5.88;;;19.40;76.70;;;;;;5028218;28;20033;-65
2023/05/07 08:38:49;;;;;;;5.85;5.35;;;19.50;76.60;;;;;;5027429;28;20419;-64
2023/05/07 08:41:16;;;;;;;6.18;5.68;;;19.50;76.60;;;;;;5031841;28;20091;-65
2023/05/07 08:43:43;;;;;;;5.30;4.90;;;19.60;76.10;;;;;;5032289;28;20129;-65
2023/05/07 08:46:11;;;;;;;6.07;5.63;;;19.70;76.10;;;;;;5031081;28;20037;-65
2023/05/07 08:48:37;;;;;;;6.22;5.63;;;19.70;75.60;;;;;;5028256;28;20520;-65
2023/05/07 08:51:02;;;;;;;5.43;5.00;;;19.70;75.60;;;;;;5033867;28;20167;-67
2023/05/07 08:53:28;;;;;;;6.60;5.28;;;19.80;75.40;;;;;;5032158;28;20120;-65
2023/05/07 08:55:54;;;;;;;6.63;5.80;;;19.80;75.40;;;;;;5032511;28;20160;-65
2023/05/07 08:58:20;;;;;;;6.25;5.65;;;19.90;75.70;;;;;;5029487;28;20397;-65
2023/05/07 09:00:46;;;;;;;6.68;5.95;;;19.90;76.60;;;;;;5034575;28;20034;-65
2023/05/07 09:03:12;;;;;;;6.53;5.90;;;19.90;75.60;;;;;;5029920;28;20034;-66
2023/05/07 09:05:38;;;;;;;6.63;5.90;;;19.90;75.70;;;;;;5024140;28;20460;-66
2023/05/07 09:08:07;;;;;;;6.63;5.97;;;19.90;75.80;;;;;;5026524;28;20739;-66
2023/05/07 09:10:35;;;;;;;6.35;5.75;;;19.90;75.80;;;;;;5019855;28;20030;-66
2023/05/07 09:13:02;;;;;;;6.63;6.13;;;19.90;76.20;;;;;;5027105;28;20049;-65
2023/05/07 09:15:28;;;;;;;7.32;6.35;;;19.90;76.20;;;;;;5029741;28;20087;-64
2023/05/07 09:17:54;;;;;;;7.00;6.40;;;20.00;75.80;;;;;;5028455;28;20045;-65
2023/05/07 09:20:19;;;;;;;7.70;6.18;;;20.00;75.90;;;;;;5029766;28;20040;-66
2023/05/07 09:22:45;;;;;;;6.97;6.38;;;20.00;75.90;;;;;;5030464;28;20071;-65
2023/05/07 09:25:11;;;;;;;7.88;6.53;;;20.10;75.80;;;;;;5034108;28;20516;-66
2023/05/07 09:27:37;;;;;;;7.40;6.70;;;20.10;75.90;;;;;;5027294;28;20029;-64
2023/05/07 09:30:06;;;;;;;7.07;6.38;;;20.20;75.50;;;;;;5031521;28;20033;-66
2023/05/07 09:32:37;;;;;;;6.97;6.38;;;20.20;75.80;;;;;;5023315;28;21144;-63
2023/05/07 09:35:03;;;;;;;8.48;6.28;;;20.30;76.00;;;;;;5023410;28;20037;-64
2023/05/07 09:37:31;;;;;;;6.82;5.93;;;20.40;76.10;;;;;;5028175;28;20064;-64
2023/05/07 09:39:57;;;;;;;5.63;5.15;;;20.50;75.90;;;;;;5027671;28;20043;-64
2023/05/07 09:42:24;;;;;;;6.13;5.55;;;20.70;75.60;;;;;;5028629;28;20045;-64
2023/05/07 09:44:51;;;;;;;6.00;5.50;;;20.80;75.40;;;;;;5030562;28;20041;-65
2023/05/07 09:47:19;;;;;;;7.30;5.70;;;21.00;75.40;;;;;;5023352;28;20090;-66
2023/05/07 09:49:48;;;;;;;5.97;5.47;;;21.10;74.90;;;;;;5033821;28;20061;-64
2023/05/07 09:52:14;;;;;;;6.55;5.95;;;21.30;74.00;;;;;;5030672;28;20412;-65
2023/05/07 09:54:42;;;;;;;6.15;5.53;;;21.40;73.80;;;;;;5028413;28;20107;-64
2023/05/07 09:57:11;;;;;;;6.55;5.43;;;21.50;73.70;;;;;;5031442;28;20049;-65
2023/05/07 09:59:38;;;;;;;5.68;5.18;;;21.70;73.10;;;;;;5030000;28;20443;-66
2023/05/07 10:02:04;;;;;;;5.60;5.20;;;21.80;72.40;;;;;;5026170;28;20033;-65
2023/05/07 10:04:31;;;;;;;5.57;5.07;;;21.90;72.00;;;;;;5028168;28;20037;-65
2023/05/07 10:06:58;;;;;;;5.45;4.95;;;22.00;72.00;;;;;;5026400;28;20029;-65
2023/05/07 10:09:25;;;;;;;5.13;4.70;;;22.00;72.00;;;;;;5031954;28;20030;-64
2023/05/07 10:11:51;;;;;;;4.28;3.85;;;22.10;71.50;;;;;;5029061;28;20033;-65
2023/05/07 10:14:19;;;;;;;3.97;3.40;;;22.20;70.70;;;;;;5036260;28;20052;-66
2023/05/07 10:16:46;;;;;;;3.78;3.42;;;22.30;70.60;;;;;;5030045;28;20574;-64
2023/05/07 10:19:12;;;;;;;4.00;3.70;;;22.50;70.20;;;;;;5034793;28;20063;-65
2023/05/07 10:21:40;;;;;;;3.95;2.85;;;22.60;69.80;;;;;;5031189;28;20032;-65
2023/05/07 10:24:16;;;;;;;3.47;3.00;;;22.70;69.30;;;;;;5033990;28;20048;-65
2023/05/07 10:26:49;;;;;;;3.28;2.85;;;22.80;68.20;;;;;;5030527;28;20049;-66
2023/05/07 10:29:24;;;;;;;4.55;2.67;;;22.90;67.40;;;;;;5029460;28;20129;-65
2023/05/07 10:32:28;;;;;;;2.90;2.20;;;23.00;67.30;;;;;;5034043;28;20042;-65
2023/05/07 10:34:59;;;;;;;2.50;2.28;;;23.10;67.70;;;;;;5009773;28;20034;-65
2023/05/07 10:37:25;;;;;;;2.40;2.20;;;23.20;66.40;;;;;;5005962;28;20120;-64
2023/05/07 10:39:52;;;;;;;2.45;2.25;;;23.30;65.70;;;;;;5023122;28;20131;-64
2023/05/07 10:42:17;;;;;;;2.80;2.25;;;23.30;64.80;;;;;;5030649;28;20036;-64
2023/05/07 10:44:43;;;;;;;2.30;2.10;;;23.40;64.50;;;;;;5025084;28;20041;-65
2023/05/07 10:47:18;;;;;;;2.35;2.15;;;23.40;64.00;;;;;;5028683;28;20036;-65
2023/05/07 10:49:43;;;;;;;2.00;1.90;;;23.50;62.60;;;;;;5029515;28;20083;-65
2023/05/07 10:52:20;;;;;;;2.63;2.42;;;23.50;63.70;;;;;;5032555;28;20455;-65
2023/05/07 10:54:46;;;;;;;2.30;2.10;;;23.60;62.90;;;;;;5028608;28;20029;-66
2023/05/07 10:57:30;;;;;;;3.10;1.75;;;23.60;63.40;;;;;;5031503;28;20104;-64
2023/05/07 10:59:56;;;;;;;2.43;1.90;;;23.70;61.60;;;;;;5031935;28;20041;-63
2023/05/07 11:02:22;;;;;;;3.47;2.63;;;23.70;62.40;;;;;;5031623;28;20299;-65
2023/05/07 11:05:22;;;;;;;2.90;2.08;;;23.80;62.40;;;;;;5028887;28;20103;-63
2023/05/07 11:08:05;;;;;;;2.42;2.13;;;23.90;60.30;;;;;;5020796;28;20034;-65
2023/05/07 11:10:56;;;;;;;2.55;2.20;;;23.90;59.70;;;;;;5032922;28;20033;-63
2023/05/07 11:13:47;;;;;;;2.20;2.00;;;23.90;59.30;;;;;;5033541;28;20076;-64
2023/05/07 11:16:27;;;;;;;2.95;2.03;;;24.00;59.50;;;;;;5033120;28;20029;-65
2023/05/07 11:18:55;;;;;;;2.28;1.60;;;24.00;59.80;;;;;;5035496;28;20052;-62
2023/05/07 11:21:31;;;;;;;1.88;1.77;;;24.10;60.60;;;;;;5035130;28;20033;-65
2023/05/07 11:23:58;;;;;;;2.75;1.60;;;24.10;59.00;;;;;;5026391;28;20036;-65
2023/05/07 11:26:25;;;;;;;2.63;1.60;;;24.20;59.90;;;;;;5033862;28;20040;-67
2023/05/07 11:28:51;;;;;;;1.55;1.45;;;24.20;59.30;;;;;;5032583;28;20036;-64
2023/05/07 11:31:23;;;;;;;2.17;1.60;;;24.30;59.20;;;;;;5029366;28;20187;-66
2023/05/07 11:33:49;;;;;;;1.52;1.42;;;24.30;58.60;;;;;;5026920;28;20559;-65
2023/05/07 11:36:15;;;;;;;1.85;1.45;;;24.30;59.00;;;;;;5029485;28;20133;-64
2023/05/07 11:38:41;;;;;;;1.45;1.30;;;24.40;59.40;;;;;;5027045;28;20098;-64
2023/05/07 11:41:07;;;;;;;1.60;1.50;;;24.40;58.60;;;;;;5033491;28;20582;-65
2023/05/07 11:43:35;;;;;;;1.75;1.65;;;24.40;58.30;;;;;;5034048;28;20038;-64
2023/05/07 11:46:11;;;;;;;2.30;1.58;;;24.40;58.10;;;;;;5029897;28;20033;-65
2023/05/07 11:48:37;;;;;;;1.60;1.50;;;24.50;57.60;;;;;;5030429;28;20029;-64
2023/05/07 11:51:06;;;;;;;2.58;1.58;;;24.50;58.40;;;;;;5028793;28;20033;-65
2023/05/07 11:53:39;;;;;;;1.77;1.65;;;24.60;58.20;;;;;;5031798;28;20065;-64
2023/05/07 11:56:09;;;;;;;1.50;1.40;;;24.60;58.20;;;;;;5027501;28;20033;-64
2023/05/07 11:58:34;;;;;;;2.97;1.45;;;24.70;58.30;;;;;;5033513;28;20026;-64
2023/05/07 12:01:00;;;;;;;2.30;1.67;;;24.70;58.10;;;;;;5031930;28;20029;-64
2023/05/07 12:03:26;;;;;;;3.00;1.40;;;24.80;57.70;;;;;;5030543;28;20042;-64
2023/05/07 12:05:51;;;;;;;3.30;1.60;;;24.80;56.60;;;;;;5033068;28;20045;-63
2023/05/07 12:08:21;;;;;;;1.73;1.38;;;24.90;56.30;;;;;;5024531;28;20067;-64
2023/05/07 12:10:49;;;;;;;1.40;1.30;;;24.90;56.00;;;;;;5027203;28;20033;-63
2023/05/07 12:13:19;;;;;;;1.80;1.50;;;25.00;56.30;;;;;;5027997;28;20030;-64
2023/05/07 12:15:44;;;;;;;1.48;1.38;;;25.00;56.20;;;;;;5029868;28;20462;-64
2023/05/07 12:18:11;;;;;;;1.70;1.30;;;25.00;56.00;;;;;;5030904;28;20037;-64
2023/05/07 12:20:37;;;;;;;1.30;1.20;;;25.00;56.10;;;;;;5028030;28;20048;-64
2023/05/07 12:23:03;;;;;;;1.38;1.25;;;25.00;56.30;;;;;;5032725;28;20094;-63
2023/05/07 12:25:38;;;;;;;2.08;1.10;;;25.10;56.10;;;;;;5026596;28;20606;-63
2023/05/07 12:28:07;;;;;;;;;;;25.10;56.00;;;;;;5031210;28;20045;-64
2023/05/07 12:30:37;;;;;;;3.03;1.40;;;25.20;57.10;;;;;;5026676;28;19913;-64
2023/05/07 12:33:03;;;;;;;1.50;1.40;;;25.20;56.40;;;;;;5030054;28;21542;-64
2023/05/07 12:35:29;;;;;;;1.73;1.50;;;25.20;56.30;;;;;;5025427;28;20044;-68
2023/05/07 12:38:03;;;;;;;2.28;1.40;;;25.20;56.00;;;;;;5030531;28;20040;-63
2023/05/07 12:40:40;;;;;;;1.42;1.30;;;25.30;55.50;;;;;;5028248;28;20065;-65
2023/05/07 12:43:06;;;;;;;2.45;1.60;;;25.30;55.30;;;;;;5029848;28;20497;-64
2023/05/07 12:45:37;;;;;;;1.95;1.35;;;25.40;55.70;;;;;;5031997;28;20056;-63